Latest Coastal Weather Observations for Gabo Island

IDV60701

Issued at 5:05 am EDT Saturday 29 November 2014 (issued every 10 minutes, with the page automatically refreshed every 10 minutes)

About coastal observations | Map of coastal stations | Coastal observations for VIC | Marine services | Other Formats
Station Details ID: 084016 Name: GABO ISLAND LIGHTHOUSE Lat: -37.57 Lon: 149.92 Height: 15.2 m
Data from the previous 72 hours. | See also: Recent months at Gabo Island
Date/Time
EDT
Temp

°C
Wind Pressure Rain
since 9am
mm
Weather Cloud Vis
km
Sea
Height
m
Swell
Dir
 
Speed
knots
Gust
knots
hPa Trend Height
m
Period
s
Dir
29/05:00am 16.6 NNE 6 8 1017.2 - 0.0 - - - - - - -
29/04:30am 16.7 NNE 10 12 1017.0 - 0.0 - - - - - - -
29/04:00am 16.6 NNE 8 11 1017.0 - 0.0 - - - - - - -
29/03:30am 16.1 NNE 5 8 1017.6 - 0.0 - - - - - - -
29/03:00am 15.6 N 5 8 1017.8 - 0.0 Fine Mostly clear 30 1 1.5 11 SE
29/02:30am 15.4 NNE 5 7 1018.2 - 0.0 - - - - - - -
29/02:00am 15.4 N 4 6 1018.5 - 0.0 - - - - - - -
29/01:30am 15.7 N 6 8 1019.0 - 0.0 - - - - - - -
29/01:00am 15.8 N 6 7 1019.5 - 0.0 - - - - - - -
29/12:30am 16.5 N 7 10 1019.7 - 0.0 - - - - - - -
29/12:00am 16.6 NNE 10 12 1020.0 - 0.0 - - - - - - -
 
Date/Time
EDT
Temp

°C
Wind Pressure Rain
since 9am
mm
Weather Cloud Vis
km
Sea
Height
m
Swell
Dir
 
Speed
knots
Gust
knots
hPa Trend Height
m
Period
s
Dir
28/11:30pm 16.4 NNE 9 12 1020.1 - 0.0 - - - - - - -
28/11:00pm 16.3 NNE 10 12 1020.2 - 0.0 - - - - - - -
28/10:30pm 16.3 NNE 10 12 1020.4 - 0.0 - - - - - - -
28/10:00pm 16.8 NNE 9 11 1020.5 - 0.0 - - - - - - -
28/09:30pm 17.5 NNE 11 13 1020.4 - 0.0 - - - - - - -
28/09:00pm 17.7 NE 12 15 1020.3 - 0.0 Fine Mostly clear 35 1 1.5 11 SE
28/08:30pm 17.8 NNE 13 15 1020.2 - 0.0 - - - - - - -
28/08:00pm 18.0 NNE 15 18 1020.0 - 0.0 - - - - - - -
28/07:30pm 18.4 NNE 18 22 1019.6 - 0.0 - - - - - - -
28/07:00pm 18.6 NNE 20 24 1019.4 - 0.0 - - - - - - -
28/06:30pm 18.8 NE 18 23 1019.5 - 0.0 - - - - - - -
28/06:00pm 18.9 NE 19 22 1019.5 - 0.0 - - - - - - -
28/05:30pm 19.0 NE 20 25 1019.6 - 0.0 - - - - - - -
28/05:00pm 19.0 NE 20 23 1019.8 - 0.0 - - - - - - -
28/04:30pm 19.1 NE 20 24 1019.9 - 0.0 - - - - - - -
28/04:00pm 19.3 NE 21 24 1020.1 - 0.0 - - - - - - -
28/03:30pm 19.5 NE 20 23 1020.4 - 0.0 - - - - - - -
28/03:00pm 19.6 NE 19 22 1020.7 - 0.0 Fine Mostly clear 40 1 1.5 11 SE
28/02:30pm 19.3 NE 19 21 1020.9 - 0.0 - - - - - - -
28/02:00pm 19.6 NE 20 22 1021.3 - 0.0 - - - - - - -
28/01:30pm 19.5 NE 18 21 1021.6 - 0.0 - - - - - - -
28/01:00pm 19.4 NE 19 21 1022.1 - 0.0 - - - - - - -
28/12:30pm 19.0 NE 18 21 1022.3 - 0.0 - - - - - - -
28/12:00pm 19.0 NE 17 19 1022.6 - 0.0 - - - - - - -
28/11:30am 18.6 ENE 15 17 1022.8 - 0.0 - - - - - - -
28/11:00am 18.3 ENE 12 14 1023.1 - 0.0 - - - - - - -
28/10:30am 18.2 ENE 13 15 1023.2 - 0.0 - - - - - - -
28/10:00am 17.6 ENE 13 14 1023.3 - 0.0 - - - - - - -
28/09:30am 17.6 ENE 11 12 1023.5 - 0.0 - - - - - - -
28/09:00am 17.2 ENE 9 11 1023.8 - 0.0 - - - - - - -
28/08:30am 17.1 NNE 8 9 1023.8 - 0.0 - - - - - - -
28/08:00am 16.6 NNE 7 8 1023.7 - 0.0 - - - - - - -
28/07:30am 15.0 NE 4 5 1023.5 - 0.0 - - - - - - -
28/07:00am 14.3 NNE 3 4 1023.3 - 0.0 - - - - - - -
28/06:30am 13.1 CALM 0 0 1023.1 - 0.0 - - - - - - -
28/06:00am 12.9 CALM 0 0 1022.9 - 0.0 - - - - - - -
28/05:30am 12.6 CALM 0 0 1023.0 - 0.0 - - - - - - -
28/05:00am 12.2 CALM 0 0 1022.7 - 0.0 - - - - - - -
28/04:30am 13.2 W 3 4 1022.5 - 0.0 - - - - - - -
28/04:00am 12.8 WNW 5 6 1022.7 - 0.0 - - - - - - -
28/03:30am 12.9 WNW 7 8 1022.9 - 0.0 - - - - - - -
28/03:00am 13.1 NW 8 9 1023.0 - 0.0 Fine Mostly clear 30 <0.5 1.0 8 S
28/02:30am 12.9 NW 8 10 1023.1 - 0.0 - - - - - - -
28/02:00am 13.0 NW 9 12 1023.5 - 0.0 - - - - - - -
28/01:30am 13.0 NW 9 11 1023.7 - 0.0 - - - - - - -
28/01:00am 13.4 WNW 9 11 1024.0 - 0.0 - - - - - - -
28/12:30am 13.2 WNW 8 11 1024.3 - 0.0 - - - - - - -
28/12:00am 13.4 NW 8 9 1024.4 - 0.0 - - - - - - -
 
Date/Time
EDT
Temp

°C
Wind Pressure Rain
since 9am
mm
Weather Cloud Vis
km
Sea
Height
m
Swell
Dir
 
Speed
knots
Gust
knots
hPa Trend Height
m
Period
s
Dir
27/11:30pm 13.5 NW 8 9 1024.6 - 0.0 - - - - - - -
27/11:00pm 13.6 NW 7 9 1024.8 - 0.0 - - - - - - -
27/10:30pm 13.9 NW 7 9 1025.0 - 0.0 - - - - - - -
27/10:00pm 14.0 NW 6 8 1025.0 - 0.0 - - - - - - -
27/09:30pm 15.1 W 9 11 1024.8 - 0.0 - - - - - - -
27/09:00pm 15.4 SW 9 11 1024.6 - 0.0 Fine Mostly clear 30 1 1.2 7 S
27/08:30pm 15.6 SW 11 13 1024.4 - 0.0 - - - - - - -
27/08:00pm 15.7 SW 13 16 1024.4 - 0.0 - - - - - - -
27/07:30pm 16.0 SSW 14 16 1024.3 - 0.0 - - - - - - -
27/07:00pm 16.2 SSW 15 18 1024.0 - 0.0 - - - - - - -
27/06:30pm 16.1 SSW 17 20 1023.6 - 0.0 - - - - - - -
27/06:00pm 16.3 SSW 20 22 1023.4 - 0.0 - - - - - - -
27/05:30pm 16.2 SSW 22 24 1023.4 - 0.0 - - - - - - -
27/05:00pm 16.4 SSW 21 24 1023.3 - 0.0 - - - - - - -
27/04:30pm 16.3 SSW 23 26 1023.2 - 0.0 - - - - - - -
27/04:00pm 16.4 SSW 23 27 1023.4 - 0.0 - - - - - - -
27/03:30pm 16.1 SSW 25 30 1023.5 - 0.0 - - - - - - -
27/03:00pm 16.0 SSW 27 30 1023.5 - 0.0 Fine Mostly clear 30 2 1.5 7 S
27/02:30pm 16.1 SSW 26 29 1023.5 - 0.0 - - - - - - -
27/02:00pm 15.9 SSW 26 30 1023.5 - 0.0 - - - - - - -
27/01:30pm 15.6 SSW 27 31 1023.5 - 0.0 - - - - - - -
27/01:00pm 16.1 SSW 26 30 1023.6 - 0.0 - - - - - - -
27/12:30pm 15.8 SW 24 27 1023.6 - 0.0 - - - - - - -
27/12:00pm 16.0 SSW 24 28 1023.7 - 0.0 - - - - - - -
27/11:30am 16.0 SSW 23 27 1023.7 - 0.0 - - - - - - -
27/11:00am 16.4 SW 20 24 1023.9 - 0.0 - - - - - - -
27/10:30am 16.9 WSW 17 22 1024.0 - 0.0 - - - - - - -
27/10:00am 16.6 WSW 19 26 1024.1 - 0.0 - - - - - - -
27/09:30am 16.4 WSW 18 23 1024.0 - 0.0 - - - - - - -
27/09:00am 15.3 WSW 18 22 1024.2 - 0.0 Fine Mostly cloudy 30 1 1.0 7 S
27/08:30am 14.9 WSW 18 23 1024.1 - 0.0 - - - - - - -
27/08:00am 14.4 W 18 23 1023.8 - 0.0 - - - - - - -
27/07:30am 14.0 W 16 20 1023.5 - 0.0 - - - - - - -
27/07:00am 14.2 W 15 24 1023.1 - 0.0 - - - - - - -
27/06:30am 14.4 WSW 19 23 1022.7 - 0.0 - - - - - - -
27/06:00am 14.1 W 15 19 1022.5 - 0.0 - - - - - - -
27/05:30am 14.6 WSW 19 23 1022.2 - 0.0 - - - - - - -
27/05:00am 14.3 WSW 18 25 1021.9 - 0.0 - - - - - - -
27/04:30am 14.6 WSW 19 25 1021.6 - 0.0 - - - - - - -
27/04:00am 14.4 WSW 17 22 1021.5 - 0.0 - - - - - - -
27/03:30am 14.9 WSW 19 24 1021.5 - 0.0 - - - - - - -
27/03:00am 14.7 WSW 19 23 1021.6 - 0.0 Fine Mostly cloudy 30 2 1.5 7 SW
27/02:30am 15.1 SW 21 27 1021.6 - 0.0 - - - - - - -
27/02:00am 14.9 SW 23 29 1021.7 - 0.0 - - - - - - -
27/01:30am 15.0 SW 23 28 1021.8 - 0.0 - - - - - - -
27/01:00am 15.0 SW 25 30 1022.0 - 0.0 - - - - - - -
27/12:30am 15.4 WSW 18 23 1022.2 - 0.0 - - - - - - -
27/12:00am 15.3 WSW 20 25 1022.1 - 0.0 - - - - - - -
 
Date/Time
EDT
Temp

°C
Wind Pressure Rain
since 9am
mm
Weather Cloud Vis
km
Sea
Height
m
Swell
Dir
 
Speed
knots
Gust
knots
hPa Trend Height
m
Period
s
Dir
26/11:30pm 15.6 WSW 17 20 1022.1 - 0.0 - - - - - - -
26/11:00pm 15.5 WSW 17 23 1022.1 - 0.0 - - - - - - -
26/10:30pm 15.5 WSW 17 21 1022.0 - 0.0 - - - - - - -
26/10:00pm 15.8 WSW 17 22 1021.8 - 0.0 - - - - - - -
26/09:30pm 15.8 WSW 16 21 1021.6 - 0.0 - - - - - - -
26/09:00pm 15.8 WSW 17 23 1021.2 - 0.0 Fine Mostly cloudy 30 1 1.5 7 SW
26/08:30pm 16.1 SW 20 26 1020.8 - 0.0 - - - - - - -
26/08:00pm 15.9 SW 21 25 1020.6 - 0.0 - - - - - - -
26/07:30pm 16.2 SW 23 28 1020.4 - 0.0 - - - - - - -
26/07:00pm 16.6 SW 23 27 1019.8 - 0.0 - - - - - - -
26/06:30pm 16.8 SW 22 27 1019.4 - 0.0 - - - - - - -
26/06:00pm 16.7 SW 23 26 1019.1 - 0.0 - - - - - - -
26/05:30pm 17.0 SW 22 25 1019.1 - 0.0 - - - - - - -
26/05:00pm 16.9 SW 20 23 1019.2 - 0.0 - - - - - - -
26/04:30pm 17.1 SSW 24 28 1019.1 - 0.0 - - - - - - -
26/04:00pm 17.0 SW 26 30 1018.9 - 0.0 - - - - - - -
26/03:30pm 17.0 SSW 27 31 1018.8 - 0.0 - - - - - - -
26/03:00pm 16.8 SSW 27 31 1018.7 - 0.0 Fine Mostly cloudy 30 2 1.5 6 SW
26/02:30pm 16.9 SSW 27 31 1018.8 - 0.0 - - - - - - -
26/02:00pm 16.7 SSW 26 32 1018.8 - 0.0 - - - - - - -
26/01:30pm 16.8 SSW 28 32 1018.7 - 0.0 - - - - - - -
26/01:00pm 16.6 SSW 27 31 1018.8 - 0.0 - - - - - - -
26/12:30pm 16.5 SSW 24 29 1019.0 - 0.0 - - - - - - -
26/12:00pm 16.5 SSW 23 28 1019.1 - 0.0 - - - - - - -
26/11:30am 16.4 SSW 21 24 1019.2 - 0.0 - - - - - - -
26/11:00am 16.5 SSW 19 23 1019.4 - 0.0 - - - - - - -
26/10:30am 16.5 SW 18 22 1019.4 - 0.0 - - - - - - -
26/10:00am 16.4 SW 13 16 1019.6 - 0.0 - - - - - - -
26/09:30am 16.7 WSW 8 9 1019.9 - 0.0 - - - - - - -
26/09:00am 16.2 WSW 9 11 1020.0 - 0.0 Fine Mostly cloudy 30 1 1.0 8 SW
26/08:30am 15.8 W 9 11 1020.0 - 0.0 - - - - - - -
26/08:00am 15.5 WSW 13 16 1019.8 - 0.0 - - - - - - -
26/07:30am 15.6 W 14 18 1019.4 - 0.0 - - - - - - -
26/07:00am 14.8 W 12 15 1019.3 - 0.0 - - - - - - -
26/06:30am 14.2 W 10 13 1019.4 - 0.0 - - - - - - -
26/06:00am 13.9 W 10 14 1019.0 - 0.0 - - - - - - -
26/05:30am 13.9 W 11 14 1019.0 - 0.0 - - - - - - -

Other Formats:

Comma delimited format used in spreadsheet applications
http://www.bom.gov.au/fwo/IDV60701/IDV60701.94933.axf

JavaScript Object Notation format (JSON) in row-major order
http://www.bom.gov.au/fwo/IDV60701/IDV60701.94933.json